• Join FlightAware (Why Join?)
  • Login
  • US Flag 
08:35AM EDT


 

Airport Tracker/Info


-or-


 

Live Flight TrackerFlight Track Log ✈ EJA328 ✈ 27-Mar-2014 ✈ KPHX - KSNA

Flight Track Log - Related Links

Times and Time Zones

All times are in EDT time to prevent confusion due to time zone crossing. See the EJA328 flight status page for this flight to view local times or setup timezone preferences in your user account.

Time Position Orientation Groundspeed Altitude Reporting Facility
EDT Latitude Longitude Course Direction KTS MPH feet Rate Location/Type
07:12PM 33.3937 -112.2733 277° West 252 290 14,900  Level FlightAware ADS-B (KDMA)
07:13PM 33.4037 -112.3641 277° West 261 300 18,700 3,480 Climbing FlightAware ADS-B (KDMA)
07:14PM 33.4087 -112.4101 278° West 261 300 20,500 3,060 Climbing FlightAware ADS-B (KDMA)
07:14PM 33.4157 -112.4748 277° West 266 306 22,700 2,760 Climbing FlightAware ADS-B (KDMA)
07:15PM 33.4208 -112.5212 277° West 276 318 24,000 2,460 Climbing FlightAware ADS-B (KDMA)
07:15PM 33.4258 -112.5667 277° West 281 323 25,200 2,520 Climbing FlightAware ADS-B (KDMA)
07:16PM 33.4310 -112.6148 277° West 283 326 26,600 2,280 Climbing FlightAware ADS-B (KDMA)
07:17PM 33.4379 -112.6789 277° West 293 337 28,000 2,220 Climbing FlightAware ADS-B (KDMA)
07:17PM 33.4434 -112.7298 277° West 293 337 29,300 2,460 Climbing FlightAware ADS-B (KDMA)
07:18PM 33.4515 -112.8061 277° West 290 334 31,200 1,860 Climbing FlightAware ADS-B (KDMA)
07:18PM 33.4620 -112.8689 283° West 308 354 32,000 480 Climbing FlightAware ADS-B (KDMA)
07:19PM 33.4788 -112.9565 282° West 344 396 32,000  Level FlightAware ADS-B (KDMA)
07:20PM 33.5048 -113.0919 283° West 367 422 32,000  Level FlightAware ADS-B (KDMA)
07:21PM 33.5256 -113.2007 283° West 369 425 32,000  Level FlightAware ADS-B (KDMA)
07:22PM 33.5369 -113.2600 283° West 369 425 32,000  Level FlightAware ADS-B (KDMA)
07:22PM 33.5504 -113.3317 283° West 372 428 32,000  Level FlightAware ADS-B (KDMA)
07:24PM 33.5739 -113.4547 283° West 368 423 32,000  Level Albuquerque Center
07:25PM 33.6019 -113.6014 283° West 375 432 32,000  Level Albuquerque Center
07:26PM 33.6258 -113.7311 283° West 380 437 32,000  Level Albuquerque Center
07:27PM 33.6492 -113.8569 283° West 384 442 32,000  Level Albuquerque Center
07:28PM 33.6700 -113.9769 282° West 376 433 32,000  Level Albuquerque Center
07:29PM 33.6922 -114.0881 284° West 351 404 32,000  Level Albuquerque Center
07:30PM 33.7114 -114.1997 282° West 346 398 32,000  Level Albuquerque Center
07:31PM 33.7311 -114.3069 282° West 345 397 32,000  Level Albuquerque Center
07:32PM 33.7567 -114.4458 283° West 351 404 32,000  Level Albuquerque Center
07:33PM 33.7753 -114.5600 281° West 351 404 32,000  Level Albuquerque Center
07:34PM 33.7839 -114.7153 274° West 353 406 32,000  Level Los Angeles Center
07:39PM 33.8156 -115.3035 274° West 354 407 32,000  Level FlightAware ADS-B (KBNG)
07:41PM 33.8292 -115.5658 272° West 388 447 32,000 -420 Level FlightAware ADS-B (KBNG)
07:43PM 33.8425 -115.8323 273° West 388 447 30,400 -720 Descending FlightAware ADS-B (KBNG)
07:44PM 33.8485 -115.9586 273° West 385 443 29,900 -1,080 Descending FlightAware ADS-B
07:46PM 33.8572 -116.1419 273° West 380 437 27,800 -1,560 Descending FlightAware ADS-B
07:47PM 33.8606 -116.2168 273° West 367 422 26,500 -1,740 Descending FlightAware ADS-B (KBNG)
07:47PM 33.8627 -116.2633 273° West 361 415 25,600 -1,500 Descending FlightAware ADS-B
07:48PM 33.8688 -116.4005 273° West 351 404 24,400 -1,980 Descending FlightAware ADS-B (KBNG)
07:49PM 33.8732 -116.4957 273° West 354 407 21,900 -2,640 Descending FlightAware ADS-B
07:50PM 33.8774 -116.5851 273° West 345 397 20,000 -2,640 Descending FlightAware ADS-B
07:50PM 33.8802 -116.6426 273° West 336 387 18,900 -2,820 Descending FlightAware ADS-B (KBNG)
07:51PM 33.8840 -116.7253 273° West 333 383 16,700 -2,880 Descending FlightAware ADS-B (KBNG)
07:51PM 33.8866 -116.7828 273° West 313 360 15,500 -2,340 Descending FlightAware ADS-B (KBNG)
07:52PM 33.8889 -116.8341 273° West 301 346 14,300 -2,040 Descending FlightAware ADS-B (KBNG)
07:52PM 33.8874 -116.8637 257° West 296 341 13,800 -1,800 Descending FlightAware ADS-B (KBNG)
07:53PM 33.8777 -116.9196 259° West 316 364 12,800 -1,860 Descending FlightAware ADS-B (KBNG)
07:53PM 33.8663 -116.9889 259° West 330 380 11,600 -2,400 Descending FlightAware ADS-B (KBNG)
07:54PM 33.8555 -117.0514 259° West 307 353 9,800 -3,000 Descending FlightAware ADS-B (KBNG)
07:54PM 33.8503 -117.0842 260° West 290 334 8,800 -2,580 Descending FlightAware ADS-B (KBNG)
07:55PM 33.8451 -117.1187 257° West 259 298 8,000 -540 Descending FlightAware ADS-B (KBNG)
07:56PM 33.8232 -117.2436 258° West 277 319 7,900 -60 Descending FlightAware ADS-B
07:57PM 33.8039 -117.3561 259° West 283 326 7,900  Level FlightAware ADS-B
07:58PM 33.7888 -117.4436 259° West 245 282 7,900 -60 Level FlightAware ADS-B
07:59PM 33.7798 -117.5201 272° West 240 276 7,800 -720 Descending FlightAware ADS-B
08:00PM 33.7801 -117.5401 271° West 240 276 7,000 -2,100 Descending FlightAware ADS-B
08:00PM 33.7803 -117.5637 270° West 233 268 6,600 -600 Descending FlightAware ADS-B
08:01PM 33.7900 -117.6080 297° West 212 244 6,500 -300 Descending FlightAware ADS-B
08:01PM 33.8053 -117.6439 298° West 210 242 6,300 -1,620 Descending FlightAware ADS-B
08:02PM 33.8284 -117.6971 299° West 194 223 4,100 -1,860 Descending FlightAware ADS-B
08:02PM 33.8339 -117.7228 261° West 187 215 3,900 -360 Descending FlightAware ADS-B
08:03PM 33.8315 -117.7357 258° West 182 209 3,900 -1,080 Level FlightAware ADS-B
08:03PM 33.8194 -117.7766 237° Southwest 171 197 2,900 -1,200 Descending FlightAware ADS-B
08:04PM 33.8087 -117.7856 204° Southwest 164 189 2,800 -780 Descending FlightAware ADS-B
08:04PM 33.7948 -117.7931 209° Southwest 135 155 2,400 -780 Descending FlightAware ADS-B
08:05PM 33.7716 -117.8079 207° Southwest 141 162 2,000 -720 Descending FlightAware ADS-B (KSNA)
08:05PM 33.7605 -117.8150 209° Southwest 144 166 1,700 -780 Descending FlightAware ADS-B (KSNA)
08:05PM 33.7479 -117.8232 209° Southwest 145 167 1,500 -840 Descending FlightAware ADS-B (KSNA)
08:06PM 33.7388 -117.8291 207° Southwest 135 155 1,200 -780 Descending FlightAware ADS-B
08:06PM 33.7257 -117.8372 207° Southwest 131 151 1,000 -720 Descending FlightAware ADS-B (KSNA)
08:06PM 33.7163 -117.8431 208° Southwest 122 140 700 -840 Descending FlightAware ADS-B (KSNA)
08:07PM 33.7077 -117.8485 208° Southwest 107 123 500 -480 Descending FlightAware ADS-B (KSNA)
08:07PM 33.6872 -117.8608 208° Southwest 130 150 200 -240 Descending Los Angeles Center
08:08PM 33.6600 -117.8797 210° Southwest 127 146 100 -120 Descending Los Angeles Center
08:10PM 33.6667 -117.8667 132° Southeast  Level FlightAware Approximate
08:17PM 33.6757 -117.8682 132° Southeast  Level Estimated